Time;durP1;ratioP1;P1;durP2;ratioP2;P2;SDS_P1;SDS_P2;PMS_P1;PMS_P2;Temp;Humidity;BMP_temperature;BMP_pressure;BME280_temperature;BME280_humidity;BME280_pressure;Samples;Min_cycle;Max_cycle;Signal;HPM_P1;HPM_P2
2023/02/20 00:00:25;;;;;;;45.42;24.25;;;5.30;99.90;;;;;;5027747;28;20052;-78
2023/02/20 00:02:52;;;;;;;48.22;25.48;;;5.20;99.90;;;;;;5025784;28;20055;-80
2023/02/20 00:05:19;;;;;;;46.95;22.90;;;5.30;99.90;;;;;;5029199;28;20546;-78
2023/02/20 00:07:46;;;;;;;47.92;25.45;;;5.20;99.90;;;;;;5031451;28;20059;-81
2023/02/20 00:10:15;;;;;;;53.55;28.30;;;5.20;99.90;;;;;;5034113;28;20045;-80
2023/02/20 00:12:42;;;;;;;59.38;30.95;;;5.20;99.90;;;;;;5017186;28;20045;-80
2023/02/20 00:15:10;;;;;;;54.20;27.65;;;5.20;99.90;;;;;;5024133;28;20300;-78
2023/02/20 00:17:37;;;;;;;59.22;30.58;;;5.30;99.90;;;;;;4999707;28;20068;-81
2023/02/20 00:20:05;;;;;;;68.05;31.20;;;5.30;99.90;;;;;;5042414;28;20040;-80
2023/02/20 00:22:31;;;;;;;61.22;32.55;;;5.30;99.90;;;;;;5041055;28;20044;-79
2023/02/20 00:24:58;;;;;;;72.70;34.03;;;5.30;99.90;;;;;;5032532;28;20072;-80
2023/02/20 00:27:25;;;;;;;72.88;36.83;;;5.30;99.90;;;;;;5012008;28;20059;-79
2023/02/20 00:29:51;;;;;;;76.07;36.92;;;5.30;99.90;;;;;;5024906;28;20414;-80
2023/02/20 00:32:18;;;;;;;78.57;37.47;;;5.30;99.90;;;;;;5030102;28;20414;-78
2023/02/20 00:34:45;;;;;;;78.47;38.83;;;5.30;99.90;;;;;;5015984;28;20057;-80
2023/02/20 00:37:12;;;;;;;76.70;37.92;;;5.30;99.90;;;;;;5029580;28;20037;-78
2023/02/20 00:39:39;;;;;;;76.35;38.72;;;5.30;99.90;;;;;;5030470;28;20051;-77
2023/02/20 00:42:06;;;;;;;64.70;31.42;;;5.30;99.90;;;;;;5029674;28;20084;-77
2023/02/20 00:44:32;;;;;;;73.28;37.15;;;5.30;99.90;;;;;;5033020;28;20047;-77
2023/02/20 00:46:59;;;;;;;75.22;37.85;;;5.30;99.90;;;;;;5032755;28;20482;-76
2023/02/20 00:49:26;;;;;;;77.32;37.50;;;5.30;99.90;;;;;;5023267;28;20052;-78
2023/02/20 00:51:53;;;;;;;74.38;35.97;;;5.30;99.90;;;;;;5033075;28;20041;-78
2023/02/20 00:54:19;;;;;;;79.00;35.30;;;5.30;99.90;;;;;;5025057;28;20059;-76
2023/02/20 00:56:46;;;;;;;65.03;30.90;;;5.30;99.90;;;;;;5037886;28;20562;-76
2023/02/20 00:59:13;;;;;;;76.80;35.92;;;5.30;99.90;;;;;;5038355;28;20163;-78
2023/02/20 01:01:40;;;;;;;75.75;36.75;;;5.30;99.90;;;;;;5013906;28;20091;-79
2023/02/20 01:04:07;;;;;;;79.22;38.35;;;5.30;99.90;;;;;;5024118;28;20081;-76
2023/02/20 01:06:33;;;;;;;73.07;36.80;;;5.40;99.90;;;;;;5030845;28;20390;-76
2023/02/20 01:09:00;;;;;;;70.97;34.70;;;5.30;99.90;;;;;;5037554;28;20041;-78
2023/02/20 01:11:27;;;;;;;84.47;36.78;;;5.30;99.90;;;;;;5032685;28;20093;-76
2023/02/20 01:13:53;;;;;;;78.72;35.70;;;5.30;99.90;;;;;;5034123;28;20051;-78
2023/02/20 01:16:20;;;;;;;75.88;35.88;;;5.30;99.90;;;;;;5031518;28;20076;-77
2023/02/20 01:18:50;;;;;;;77.30;35.15;;;5.20;99.90;;;;;;5033127;28;20486;-78
2023/02/20 01:21:18;;;;;;;79.38;36.03;;;5.20;99.90;;;;;;5032652;28;20454;-77
2023/02/20 01:23:44;;;;;;;87.18;40.08;;;5.30;99.90;;;;;;5019795;28;20040;-77
2023/02/20 01:26:12;;;;;;;79.90;35.78;;;5.30;99.90;;;;;;5034850;28;20536;-77
2023/02/20 01:28:48;;;;;;;76.70;35.72;;;5.20;99.90;;;;;;5018273;28;20041;-77
2023/02/20 01:31:14;;;;;;;81.43;35.35;;;5.20;99.90;;;;;;5038819;28;20059;-77
2023/02/20 01:33:43;;;;;;;78.78;36.05;;;5.20;99.90;;;;;;5032820;28;20123;-77
2023/02/20 01:36:10;;;;;;;65.65;29.88;;;5.20;99.90;;;;;;5033384;28;20047;-77
2023/02/20 01:38:39;;;;;;;67.38;32.00;;;5.20;99.90;;;;;;5040782;28;20063;-76
2023/02/20 01:41:07;;;;;;;62.92;28.83;;;5.10;99.90;;;;;;5036915;28;20049;-76
2023/02/20 01:43:34;;;;;;;67.38;29.23;;;5.10;99.90;;;;;;5035515;28;20040;-78
2023/02/20 01:46:26;;;;;;;55.92;26.38;;;5.00;99.90;;;;;;5031880;28;20049;-77
2023/02/20 01:49:10;;;;;;;51.60;24.67;;;5.00;99.90;;;;;;5035391;28;20135;-75
2023/02/20 01:51:52;;;;;;;51.70;23.63;;;5.00;99.90;;;;;;5033091;28;20530;-76
2023/02/20 01:54:22;;;;;;;49.22;22.25;;;4.90;99.90;;;;;;5027664;28;20047;-77
2023/02/20 01:56:49;;;;;;;43.35;21.02;;;4.80;99.90;;;;;;5029544;28;20037;-77
2023/02/20 01:59:19;;;;;;;43.67;21.42;;;4.80;99.90;;;;;;5037421;28;20579;-77
2023/02/20 02:01:46;;;;;;;35.28;18.02;;;4.80;99.90;;;;;;5027727;28;20061;-77
2023/02/20 02:04:14;;;;;;;36.75;18.48;;;4.70;99.90;;;;;;5016147;28;20052;-76
2023/02/20 02:06:47;;;;;;;34.92;17.63;;;4.70;99.90;;;;;;5024222;28;20039;-76
2023/02/20 02:09:54;;;;;;;30.05;15.60;;;4.70;99.90;;;;;;5032447;28;20039;-75
2023/02/20 02:12:22;;;;;;;29.33;14.35;;;4.70;99.90;;;;;;4999258;28;20060;-75
2023/02/20 02:14:48;;;;;;;31.13;16.52;;;4.60;99.90;;;;;;5037297;28;20033;-76
2023/02/20 02:17:31;;;;;;;27.40;14.23;;;4.60;99.90;;;;;;5033459;28;20044;-75
2023/02/20 02:20:36;;;;;;;32.60;13.98;;;4.60;99.90;;;;;;5054005;23;20068;-72
2023/02/20 02:23:21;;;;;;;24.35;12.45;;;4.60;99.90;;;;;;5037963;28;20040;-73
2023/02/20 02:26:21;;;;;;;26.35;12.52;;;4.60;99.90;;;;;;5036058;28;20041;-73
2023/02/20 02:29:12;;;;;;;33.70;14.50;;;4.60;99.90;;;;;;5015207;28;20225;-73
2023/02/20 02:32:03;;;;;;;30.35;16.20;;;4.60;99.90;;;;;;5039524;28;20049;-73
2023/02/20 02:34:54;;;;;;;33.40;14.82;;;4.60;99.90;;;;;;5022546;28;20044;-73
2023/02/20 02:37:39;;;;;;;32.95;15.32;;;4.50;99.90;;;;;;5015317;28;20045;-72
2023/02/20 02:40:28;;;;;;;30.80;15.03;;;4.60;99.90;;;;;;5043990;28;20083;-73
2023/02/20 02:43:26;;;;;;;34.72;16.35;;;4.70;99.90;;;;;;5016403;28;20041;-73
2023/02/20 02:45:56;;;;;;;32.35;15.40;;;4.70;99.90;;;;;;5039168;28;20049;-75
2023/02/20 02:48:27;;;;;;;35.83;17.23;;;4.70;99.90;;;;;;5043014;28;20075;-75
2023/02/20 02:50:59;;;;;;;33.13;16.35;;;4.70;99.90;;;;;;5016129;28;20575;-71
2023/02/20 02:53:26;;;;;;;32.58;15.93;;;4.70;99.90;;;;;;5028191;28;20051;-72
2023/02/20 02:55:54;;;;;;;31.13;14.82;;;4.80;99.90;;;;;;5021461;28;20049;-72
2023/02/20 02:58:21;;;;;;;35.38;15.57;;;4.80;99.90;;;;;;5041536;28;20082;-72
2023/02/20 03:01:01;;;;;;;34.90;16.02;;;4.80;99.90;;;;;;5021555;28;20075;-75
2023/02/20 03:03:33;;;;;;;35.63;16.00;;;4.80;99.90;;;;;;5026264;28;20575;-72
2023/02/20 03:06:09;;;;;;;29.00;13.95;;;4.80;99.90;;;;;;5022839;28;20487;-72
2023/02/20 03:08:44;;;;;;;25.65;14.90;;;4.80;99.90;;;;;;5023539;28;20287;-75
2023/02/20 03:11:17;;;;;;;33.90;16.83;;;4.90;99.90;;;;;;5017767;28;20047;-75
2023/02/20 03:16:57;;;;;;;29.33;15.18;;;4.90;99.90;;;;;;5014162;28;20048;-72
2023/02/20 03:19:49;;;;;;;28.17;15.40;;;4.90;99.90;;;;;;5018066;28;20147;-72
2023/02/20 03:22:36;;;;;;;31.60;15.68;;;4.90;99.90;;;;;;5013601;28;20080;-75
2023/02/20 03:25:30;;;;;;;25.88;14.52;;;4.90;99.90;;;;;;5033677;28;20052;-72
2023/02/20 03:28:02;;;;;;;27.63;15.68;;;5.00;99.90;;;;;;5018067;28;20114;-75
2023/02/20 03:30:50;;;;;;;23.58;14.32;;;5.00;99.90;;;;;;5035575;28;20079;-74
2023/02/20 03:45:13;;;;;;;32.05;18.35;;;5.20;99.90;;;;;;5023590;28;20048;-72
2023/02/20 03:47:44;;;;;;;31.00;17.67;;;5.20;99.90;;;;;;5001061;28;20746;-74
2023/02/20 03:52:59;;;;;;;33.47;16.95;;;5.10;99.90;;;;;;5025111;28;20043;-74
2023/02/20 03:55:26;;;;;;;32.92;18.13;;;5.20;99.90;;;;;;5026474;28;20317;-73
2023/02/20 03:57:59;;;;;;;39.35;18.42;;;5.20;99.90;;;;;;5025938;28;20123;-74
2023/02/20 04:00:34;;;;;;;34.50;18.55;;;5.20;99.90;;;;;;5025797;28;20060;-72
2023/02/20 04:03:07;;;;;;;40.92;20.20;;;5.20;99.90;;;;;;5018996;28;20040;-72
2023/02/20 04:05:42;;;;;;;39.30;19.08;;;5.30;99.90;;;;;;5025960;28;20128;-73
2023/02/20 04:08:16;;;;;;;40.28;19.38;;;5.20;99.90;;;;;;5011046;28;20055;-74
2023/02/20 04:10:55;;;;;;;40.53;19.27;;;5.30;99.90;;;;;;5017364;28;20067;-73
2023/02/20 04:13:24;;;;;;;39.08;18.63;;;5.30;99.90;;;;;;5018910;28;20048;-75
2023/02/20 04:15:52;;;;;;;45.53;22.17;;;5.30;99.90;;;;;;5018865;28;20490;-74
2023/02/20 04:18:22;;;;;;;41.17;20.98;;;5.30;99.90;;;;;;5021039;28;20090;-74
2023/02/20 04:20:53;;;;;;;38.28;20.98;;;5.30;99.90;;;;;;4995720;28;20280;-74
2023/02/20 04:23:36;;;;;;;46.60;20.63;;;5.30;99.90;;;;;;5021080;28;20137;-74
2023/02/20 04:26:12;;;;;;;37.35;19.25;;;5.30;99.90;;;;;;5041948;28;20051;-74
2023/02/20 04:28:42;;;;;;;44.80;22.92;;;5.30;99.90;;;;;;5042636;22;20053;-71
2023/02/20 04:31:12;;;;;;;39.63;20.38;;;5.20;99.90;;;;;;5010514;28;21050;-71
2023/02/20 04:33:39;;;;;;;46.58;22.20;;;5.20;99.90;;;;;;5026295;28;20553;-70
2023/02/20 04:36:12;;;;;;;39.97;20.60;;;5.20;99.90;;;;;;5020385;28;20186;-71
2023/02/20 04:38:39;;;;;;;39.58;21.58;;;5.30;99.90;;;;;;5003137;28;20060;-70
2023/02/20 04:41:10;;;;;;;47.83;22.55;;;5.30;99.90;;;;;;5008878;28;20095;-70
2023/02/20 04:43:38;;;;;;;36.97;20.13;;;5.40;99.90;;;;;;5036266;28;20714;-71
2023/02/20 04:46:05;;;;;;;37.75;20.55;;;5.40;99.90;;;;;;5025802;28;20131;-70
2023/02/20 04:48:33;;;;;;;44.08;22.20;;;5.40;99.90;;;;;;5021014;28;20422;-72
2023/02/20 04:51:01;;;;;;;49.55;23.02;;;5.40;99.90;;;;;;5011271;28;20044;-72
2023/02/20 04:53:30;;;;;;;43.88;21.55;;;5.40;99.90;;;;;;5011212;28;20324;-71
2023/02/20 04:55:57;;;;;;;39.53;21.88;;;5.40;99.90;;;;;;5011750;28;20044;-68
2023/02/20 04:58:25;;;;;;;45.38;24.20;;;5.40;99.90;;;;;;5022552;28;20136;-70
2023/02/20 05:01:02;;;;;;;44.30;22.17;;;5.40;99.90;;;;;;5010177;28;20448;-71
2023/02/20 05:03:29;;;;;;;43.13;23.08;;;5.50;99.90;;;;;;5039315;28;20422;-70
2023/02/20 05:05:55;;;;;;;34.72;20.48;;;5.60;99.90;;;;;;5030854;28;20134;-71
2023/02/20 05:08:22;;;;;;;38.40;21.75;;;5.60;99.90;;;;;;5039899;28;20661;-70
2023/02/20 05:10:49;;;;;;;40.63;23.65;;;5.70;99.90;;;;;;5022653;28;20497;-70
2023/02/20 05:13:15;;;;;;;40.08;22.35;;;5.60;99.90;;;;;;5026761;28;20049;-70
2023/02/20 05:15:42;;;;;;;35.92;21.00;;;5.70;99.90;;;;;;5035482;28;20078;-72
2023/02/20 05:18:09;;;;;;;35.42;21.80;;;5.70;99.90;;;;;;5028115;28;21319;-69
2023/02/20 05:23:22;;;;;;;28.23;19.05;;;5.70;99.90;;;;;;5036615;28;20149;-70
2023/02/20 05:25:49;;;;;;;36.78;22.08;;;5.70;99.90;;;;;;5016486;28;20048;-69
2023/02/20 05:28:16;;;;;;;31.15;20.08;;;5.70;99.90;;;;;;5041587;28;20080;-72
2023/02/20 05:30:42;;;;;;;34.72;20.30;;;5.70;99.90;;;;;;5040248;28;20036;-71
2023/02/20 05:33:09;;;;;;;38.05;21.58;;;5.70;99.90;;;;;;5017241;28;20635;-71
2023/02/20 05:35:38;;;;;;;35.50;20.13;;;5.70;99.90;;;;;;5038783;28;20063;-71
2023/02/20 05:38:05;;;;;;;30.50;18.23;;;5.70;99.90;;;;;;5021406;28;20826;-73
2023/02/20 05:40:32;;;;;;;31.85;20.25;;;5.80;99.90;;;;;;5022996;28;20044;-71
2023/02/20 05:42:58;;;;;;;33.30;20.98;;;5.80;99.90;;;;;;5044467;28;20048;-72
2023/02/20 05:45:25;;;;;;;29.75;18.90;;;5.80;99.90;;;;;;5039881;28;20070;-72
2023/02/20 05:47:52;;;;;;;28.08;19.15;;;5.80;99.90;;;;;;5034167;28;20051;-71
2023/02/20 05:50:18;;;;;;;27.83;18.95;;;5.80;99.90;;;;;;5034351;28;20056;-73
2023/02/20 05:52:45;;;;;;;31.40;19.80;;;5.90;99.90;;;;;;5028658;28;20621;-72
2023/02/20 05:55:12;;;;;;;30.77;18.05;;;5.90;99.90;;;;;;5003489;28;20497;-71
2023/02/20 05:57:39;;;;;;;29.65;19.75;;;5.90;99.90;;;;;;5043110;28;20481;-71
2023/02/20 06:00:06;;;;;;;26.83;20.25;;;5.90;99.90;;;;;;5020249;28;20508;-69
2023/02/20 06:02:37;;;;;;;23.40;18.25;;;5.90;99.90;;;;;;5041597;28;20087;-71
2023/02/20 06:05:05;;;;;;;26.15;16.70;;;5.90;99.90;;;;;;5036854;28;20055;-70
2023/02/20 06:07:32;;;;;;;24.88;16.88;;;5.90;99.90;;;;;;5022434;28;20601;-71
2023/02/20 06:09:59;;;;;;;23.75;17.15;;;5.90;99.90;;;;;;5035840;28;20032;-70
2023/02/20 06:12:26;;;;;;;23.52;16.63;;;6.00;99.90;;;;;;5043930;28;20059;-70
2023/02/20 06:14:52;;;;;;;18.73;15.05;;;6.00;99.90;;;;;;5030464;28;20532;-72
2023/02/20 06:17:19;;;;;;;17.83;15.05;;;6.10;99.90;;;;;;5017571;28;20055;-72
2023/02/20 06:19:46;;;;;;;21.60;17.27;;;6.10;99.90;;;;;;5015302;28;20056;-71
2023/02/20 06:22:14;;;;;;;25.83;16.67;;;6.10;99.90;;;;;;5035816;28;20745;-71
2023/02/20 06:24:45;;;;;;;23.27;16.45;;;6.10;99.90;;;;;;5014410;28;20044;-73
2023/02/20 06:27:12;;;;;;;18.58;14.52;;;6.10;99.90;;;;;;5033724;28;20155;-71
2023/02/20 06:29:39;;;;;;;26.20;17.67;;;6.10;99.90;;;;;;5040873;28;20408;-70
2023/02/20 06:32:06;;;;;;;22.88;16.08;;;6.10;99.90;;;;;;5010985;28;20045;-70
2023/02/20 06:34:33;;;;;;;18.30;15.32;;;6.10;99.90;;;;;;5020112;28;20036;-70
2023/02/20 06:37:01;;;;;;;21.75;15.98;;;6.10;99.90;;;;;;5000235;28;20456;-71
2023/02/20 06:39:30;;;;;;;19.05;16.73;;;6.00;99.90;;;;;;5041367;28;20047;-68
2023/02/20 06:41:56;;;;;;;19.67;15.63;;;6.10;99.90;;;;;;5042145;28;20035;-70
2023/02/20 06:44:23;;;;;;;18.45;15.13;;;6.10;99.90;;;;;;5039751;28;20055;-70
2023/02/20 06:46:50;;;;;;;17.52;14.70;;;6.10;99.90;;;;;;5008676;28;20041;-69
2023/02/20 06:49:17;;;;;;;16.42;14.75;;;6.10;99.90;;;;;;5033969;28;20468;-69
2023/02/20 06:51:44;;;;;;;16.05;14.45;;;6.10;99.90;;;;;;5019649;28;20346;-70
2023/02/20 06:54:12;;;;;;;18.90;15.07;;;6.10;99.90;;;;;;5032811;28;20449;-72
2023/02/20 06:56:39;;;;;;;20.08;18.23;;;6.10;99.90;;;;;;4999128;28;20594;-71
2023/02/20 06:59:07;;;;;;;19.05;17.08;;;6.10;99.90;;;;;;5030280;28;20137;-71
2023/02/20 07:01:41;;;;;;;26.73;18.42;;;6.20;99.90;;;;;;5013662;28;20068;-70
2023/02/20 07:04:17;;;;;;;17.92;15.77;;;6.20;99.90;;;;;;4998658;28;20048;-71
2023/02/20 07:06:44;;;;;;;20.85;17.83;;;6.30;99.90;;;;;;5031976;28;20044;-70
2023/02/20 07:09:10;;;;;;;19.85;16.85;;;6.30;99.90;;;;;;5012202;28;20516;-70
2023/02/20 07:11:37;;;;;;;16.75;15.10;;;6.30;99.90;;;;;;5018328;28;20044;-69
2023/02/20 07:14:04;;;;;;;16.65;15.05;;;6.30;99.90;;;;;;5033423;28;20046;-70
2023/02/20 07:16:31;;;;;;;25.80;19.30;;;6.30;99.90;;;;;;5031077;28;20032;-70
2023/02/20 07:18:58;;;;;;;18.13;15.63;;;6.20;99.90;;;;;;5030660;28;20520;-72
2023/02/20 07:21:24;;;;;;;16.48;14.80;;;6.30;99.90;;;;;;5034334;28;20075;-70
2023/02/20 07:23:52;;;;;;;19.92;15.23;;;6.30;99.90;;;;;;5008584;28;20045;-70
2023/02/20 07:26:22;;;;;;;17.35;15.70;;;6.30;99.90;;;;;;5040013;28;20068;-72
2023/02/20 07:28:49;;;;;;;16.67;15.05;;;6.30;99.90;;;;;;5017474;28;20229;-71
2023/02/20 07:31:16;;;;;;;17.20;15.57;;;6.40;99.90;;;;;;5012506;28;20202;-71
2023/02/20 07:33:42;;;;;;;16.60;14.35;;;6.40;99.90;;;;;;5018917;28;20063;-72
2023/02/20 07:36:13;;;;;;;17.35;15.57;;;6.40;99.90;;;;;;5023265;28;20509;-71
2023/02/20 07:38:40;;;;;;;17.45;15.63;;;6.40;99.90;;;;;;5030660;28;20349;-74
2023/02/20 07:41:08;;;;;;;17.95;16.08;;;6.40;99.90;;;;;;5022833;28;20064;-73
2023/02/20 07:43:35;;;;;;;18.52;16.65;;;6.40;99.90;;;;;;5000729;28;20143;-74
2023/02/20 07:46:02;;;;;;;17.00;15.35;;;6.40;99.90;;;;;;5014965;28;20135;-72
2023/02/20 07:48:28;;;;;;;17.63;14.93;;;6.40;99.90;;;;;;5014139;28;20635;-74
2023/02/20 07:50:55;;;;;;;18.48;16.58;;;6.40;99.90;;;;;;5006983;28;20329;-74
2023/02/20 07:53:22;;;;;;;19.08;15.95;;;6.40;99.90;;;;;;5019542;28;20563;-73
2023/02/20 07:55:49;;;;;;;20.50;16.70;;;6.40;99.90;;;;;;5033308;28;20513;-71
2023/02/20 07:58:15;;;;;;;17.83;15.95;;;6.30;99.90;;;;;;5037236;28;20036;-73
2023/02/20 08:00:42;;;;;;;20.40;16.15;;;6.30;99.90;;;;;;5016375;28;20068;-73
2023/02/20 08:03:09;;;;;;;20.80;18.73;;;6.30;99.90;;;;;;5012360;28;20700;-75
2023/02/20 08:05:36;;;;;;;20.20;17.25;;;6.30;99.90;;;;;;5036113;28;20036;-74
2023/02/20 08:08:15;;;;;;;17.23;15.63;;;6.30;99.90;;;;;;4999604;28;20047;-74
2023/02/20 08:10:42;;;;;;;19.35;17.10;;;6.20;99.90;;;;;;5014688;28;20537;-74
2023/02/20 08:13:09;;;;;;;19.58;15.82;;;6.20;99.90;;;;;;5032554;28;20471;-73
2023/02/20 08:15:36;;;;;;;17.92;14.63;;;6.20;99.90;;;;;;5034785;28;20048;-73
2023/02/20 08:18:03;;;;;;;19.02;14.38;;;6.10;99.90;;;;;;5010245;28;20044;-73
2023/02/20 08:20:38;;;;;;;;;;;6.10;99.90;;;;;;5031668;28;20130;-74
2023/02/20 08:23:12;;;;;;;15.23;13.57;;;6.10;99.90;;;;;;5031207;28;19920;-72
2023/02/20 08:25:39;;;;;;;20.83;14.80;;;6.10;99.90;;;;;;5012973;28;20044;-74
2023/02/20 08:28:06;;;;;;;20.73;14.45;;;6.10;99.90;;;;;;5011656;28;20052;-73
2023/02/20 08:30:33;;;;;;;17.85;14.60;;;6.00;99.90;;;;;;5029783;28;20558;-72
2023/02/20 08:33:01;;;;;;;24.38;16.13;;;6.00;99.90;;;;;;5006681;28;20519;-72
2023/02/20 08:35:27;;;;;;;26.35;17.63;;;6.00;99.90;;;;;;5033066;28;20083;-72
2023/02/20 08:37:54;;;;;;;24.73;18.80;;;6.00;99.90;;;;;;5028998;28;20422;-72
2023/02/20 08:40:21;;;;;;;28.75;16.75;;;6.00;99.90;;;;;;5030873;28;20040;-72
2023/02/20 08:42:51;;;;;;;25.05;18.95;;;6.00;99.90;;;;;;5034016;28;20280;-72
2023/02/20 08:45:18;;;;;;;23.17;18.58;;;6.00;99.90;;;;;;5016177;28;20044;-73
2023/02/20 08:47:44;;;;;;;25.70;19.35;;;6.00;99.90;;;;;;5038732;28;20091;-74
2023/02/20 08:50:11;;;;;;;28.38;19.80;;;6.00;99.90;;;;;;5029709;28;20828;-72
2023/02/20 08:52:38;;;;;;;28.80;19.88;;;6.00;99.90;;;;;;5031449;28;20032;-73
2023/02/20 08:55:05;;;;;;;20.23;18.08;;;5.90;99.90;;;;;;5032190;28;20043;-72
2023/02/20 08:57:31;;;;;;;25.90;21.55;;;5.80;99.90;;;;;;5035880;28;20055;-72
2023/02/20 08:59:59;;;;;;;24.05;18.65;;;5.80;99.90;;;;;;5019008;28;20474;-73
2023/02/20 09:02:28;;;;;;;27.85;20.30;;;5.80;99.90;;;;;;5038253;28;20120;-72
2023/02/20 09:04:55;;;;;;;29.75;19.95;;;5.80;99.90;;;;;;5020503;28;20047;-72
2023/02/20 09:07:22;;;;;;;29.48;21.77;;;5.70;99.90;;;;;;5037014;28;20419;-73
2023/02/20 09:09:49;;;;;;;36.38;24.13;;;5.80;99.90;;;;;;5021318;28;20707;-73
2023/02/20 09:12:17;;;;;;;34.67;20.73;;;5.80;99.90;;;;;;5036290;28;20269;-74
2023/02/20 09:14:44;;;;;;;34.55;22.30;;;5.80;99.90;;;;;;5015182;28;20041;-75
2023/02/20 09:17:11;;;;;;;32.05;23.88;;;5.90;99.90;;;;;;5014473;28;20827;-75
2023/02/20 09:19:38;;;;;;;38.00;24.13;;;6.10;99.90;;;;;;5039354;28;20390;-73
2023/02/20 09:22:05;;;;;;;29.02;21.70;;;6.10;99.90;;;;;;5042643;28;20036;-74
2023/02/20 09:24:33;;;;;;;26.15;23.05;;;6.20;99.90;;;;;;5022383;28;20418;-74
2023/02/20 09:27:01;;;;;;;27.95;23.13;;;6.30;99.90;;;;;;5010928;28;20536;-74
2023/02/20 09:29:28;;;;;;;28.88;23.42;;;6.30;99.90;;;;;;5039477;28;20497;-74
2023/02/20 09:31:55;;;;;;;28.02;24.35;;;6.20;99.90;;;;;;5013173;28;20037;-74
2023/02/20 09:34:22;;;;;;;27.98;21.38;;;6.10;99.90;;;;;;5020279;28;20549;-74
2023/02/20 09:36:49;;;;;;;31.63;23.52;;;6.10;99.90;;;;;;5035393;28;20052;-75
2023/02/20 09:39:16;;;;;;;35.90;24.98;;;6.00;99.90;;;;;;5020828;28;20045;-75
2023/02/20 09:42:22;;;;;;;32.83;23.15;;;6.10;99.90;;;;;;5032758;28;20041;-73
2023/02/20 09:45:05;;;;;;;31.30;23.38;;;6.10;99.90;;;;;;5029879;28;20368;-73
2023/02/20 09:48:14;;;;;;;31.80;22.98;;;6.10;99.90;;;;;;5041629;28;20335;-73
2023/02/20 09:50:49;;;;;;;30.85;23.02;;;6.10;99.90;;;;;;5031830;28;20048;-76
2023/02/20 09:53:31;;;;;;;35.05;24.10;;;6.10;99.90;;;;;;5027240;28;20194;-73
2023/02/20 09:56:00;;;;;;;36.67;24.10;;;6.10;99.90;;;;;;5031327;28;20684;-75
2023/02/20 09:58:37;;;;;;;32.92;24.50;;;6.10;99.90;;;;;;5029647;28;20123;-75
2023/02/20 10:01:05;;;;;;;32.22;23.67;;;6.10;99.90;;;;;;5029470;28;20572;-74
2023/02/20 10:03:54;;;;;;;33.30;24.80;;;6.20;99.90;;;;;;5046788;28;20170;-74
2023/02/20 10:06:26;;;;;;;35.22;25.73;;;6.20;99.90;;;;;;5038056;28;20455;-72
2023/02/20 10:08:53;;;;;;;32.65;24.95;;;6.30;99.90;;;;;;5033217;28;20515;-73
2023/02/20 10:11:30;;;;;;;36.30;24.95;;;6.30;99.90;;;;;;5028617;28;20055;-73
2023/02/20 10:14:19;;;;;;;32.15;23.25;;;6.40;99.90;;;;;;5025712;28;20045;-73
2023/02/20 10:17:00;;;;;;;35.85;25.75;;;6.40;99.90;;;;;;5010836;28;20051;-73
2023/02/20 10:19:47;;;;;;;40.30;25.30;;;6.50;99.90;;;;;;5021818;28;20067;-74
2023/02/20 10:22:37;;;;;;;32.40;25.05;;;6.60;99.90;;;;;;5031262;28;20197;-73
2023/02/20 10:25:35;;;;;;;33.58;24.48;;;6.70;99.90;;;;;;5030108;28;20393;-75
2023/02/20 10:28:09;;;;;;;30.95;23.75;;;6.80;99.90;;;;;;5016114;28;20041;-72
2023/02/20 10:31:00;;;;;;;31.77;25.33;;;6.90;99.90;;;;;;5065992;23;20080;-68
2023/02/20 10:33:45;;;;;;;33.55;23.10;;;7.10;99.90;;;;;;5022901;28;20298;-69
2023/02/20 10:36:20;;;;;;;32.72;25.73;;;7.20;99.90;;;;;;5023708;28;20052;-69
2023/02/20 10:39:00;;;;;;;29.63;23.77;;;7.30;99.90;;;;;;5035744;28;20045;-70
2023/02/20 10:41:37;;;;;;;26.35;22.48;;;7.50;99.90;;;;;;5002287;28;20042;-70
2023/02/20 10:44:28;;;;;;;25.77;22.42;;;7.70;99.90;;;;;;5003673;28;20071;-69
2023/02/20 10:47:09;;;;;;;26.88;23.15;;;7.80;99.90;;;;;;5015013;28;20144;-70
2023/02/20 10:49:48;;;;;;;27.60;24.77;;;7.90;99.90;;;;;;5014329;28;20233;-69
2023/02/20 10:52:21;;;;;;;29.30;24.50;;;8.20;99.90;;;;;;5001984;28;20037;-70
2023/02/20 10:55:19;;;;;;;32.58;26.65;;;8.20;99.90;;;;;;5020910;28;20271;-69
2023/02/20 10:57:51;;;;;;;23.27;20.48;;;8.20;99.90;;;;;;5013214;28;20045;-70
2023/02/20 11:00:28;;;;;;;26.60;23.77;;;8.20;99.90;;;;;;5018341;28;20595;-70
2023/02/20 11:03:15;;;;;;;26.77;23.95;;;8.20;99.90;;;;;;5001596;28;20284;-70
2023/02/20 11:05:47;;;;;;;26.95;24.20;;;8.40;99.90;;;;;;5006192;28;20583;-70
2023/02/20 11:08:20;;;;;;;27.38;24.70;;;8.70;99.90;;;;;;5021318;28;20233;-70
2023/02/20 11:10:50;;;;;;;30.70;26.23;;;8.70;99.90;;;;;;4998103;28;20057;-68
2023/02/20 11:13:21;;;;;;;26.48;23.85;;;8.70;99.90;;;;;;5008878;28;20135;-68
2023/02/20 11:15:51;;;;;;;25.92;23.48;;;8.70;99.90;;;;;;5002070;28;20040;-69
2023/02/20 11:18:44;;;;;;;25.83;23.55;;;8.80;99.90;;;;;;5017282;28;20397;-69
2023/02/20 11:21:36;;;;;;;25.98;23.05;;;8.90;99.90;;;;;;4996217;28;20826;-69
2023/02/20 11:24:26;;;;;;;26.80;23.85;;;8.70;99.90;;;;;;4999006;28;20493;-71
2023/02/20 11:27:00;;;;;;;33.30;26.45;;;9.00;99.90;;;;;;4999668;28;20053;-71
2023/02/20 11:29:50;;;;;;;25.90;23.52;;;8.90;99.90;;;;;;4988265;28;20260;-68
2023/02/20 11:32:34;;;;;;;25.70;23.15;;;8.80;99.90;;;;;;5000845;28;20041;-69
2023/02/20 11:35:25;;;;;;;28.83;25.63;;;8.60;99.90;;;;;;5015679;28;20038;-70
2023/02/20 11:38:16;;;;;;;27.38;23.70;;;8.40;99.90;;;;;;5018816;28;20087;-68
2023/02/20 11:40:46;;;;;;;26.17;23.48;;;8.30;99.90;;;;;;4998876;28;20045;-69
2023/02/20 11:43:12;;;;;;;26.92;22.67;;;8.30;99.90;;;;;;5022227;28;20041;-70
2023/02/20 11:45:40;;;;;;;34.72;24.33;;;8.20;99.90;;;;;;5001852;28;20049;-68
2023/02/20 11:48:15;;;;;;;31.65;23.13;;;8.20;99.90;;;;;;5018659;28;20112;-69
2023/02/20 11:50:45;;;;;;;;;;;7.90;99.90;;;;;;5012707;28;20081;-69
2023/02/20 11:53:22;;;;;;;27.88;21.67;;;7.80;99.90;;;;;;4994577;28;20287;-69
2023/02/20 11:56:10;;;;;;;34.15;21.60;;;7.70;99.90;;;;;;5006449;28;20048;-68
2023/02/20 11:58:38;;;;;;;28.58;22.27;;;7.70;99.90;;;;;;5019553;28;20686;-68
2023/02/20 12:01:05;;;;;;;28.75;20.35;;;7.60;99.90;;;;;;4998958;28;20029;-69
2023/02/20 12:03:34;;;;;;;29.75;20.42;;;7.50;99.90;;;;;;5001192;28;20038;-69
2023/02/20 12:06:30;;;;;;;28.13;21.10;;;7.50;99.90;;;;;;4998226;28;20538;-69
2023/02/20 12:08:58;;;;;;;31.73;20.98;;;7.50;99.90;;;;;;5011246;28;20140;-70
2023/02/20 12:11:28;;;;;;;31.85;21.30;;;7.50;99.90;;;;;;4997541;28;20482;-69
2023/02/20 12:13:58;;;;;;;34.05;22.42;;;7.40;99.90;;;;;;5012100;28;20049;-69
2023/02/20 12:16:49;;;;;;;33.25;18.95;;;7.30;99.90;;;;;;5003664;28;20133;-70
2023/02/20 12:19:41;;;;;;;35.30;22.23;;;7.20;99.90;;;;;;5024186;28;20045;-69
2023/02/20 12:22:41;;;;;;;32.45;19.80;;;7.10;99.90;;;;;;4995093;28;20547;-70
2023/02/20 12:25:11;;;;;;;30.35;18.23;;;7.00;99.90;;;;;;5007647;28;20081;-70
2023/02/20 12:27:57;;;;;;;35.30;20.30;;;6.90;99.90;;;;;;5022508;28;20345;-69
2023/02/20 12:30:30;;;;;;;36.20;21.67;;;6.80;99.90;;;;;;5033123;28;20138;-69
2023/02/20 12:33:02;;;;;;;35.30;19.80;;;6.70;99.90;;;;;;4993544;28;20060;-69
2023/02/20 12:35:40;;;;;;;35.38;20.25;;;6.70;99.90;;;;;;5011482;28;20279;-69
2023/02/20 12:38:15;;;;;;;35.13;20.65;;;6.70;99.90;;;;;;5014276;28;20328;-69
2023/02/20 12:41:00;;;;;;;;;;;6.70;99.90;;;;;;5019792;28;20100;-68
2023/02/20 12:43:39;;;;;;;43.17;21.65;;;6.80;99.90;;;;;;5013345;28;20486;-69
2023/02/20 12:46:10;;;;;;;42.40;20.48;;;6.80;99.90;;;;;;5022981;28;20506;-69
2023/02/20 12:48:55;;;;;;;35.10;20.05;;;6.70;99.90;;;;;;5024452;28;20321;-69
2023/02/20 12:51:37;;;;;;;46.30;24.88;;;6.70;99.90;;;;;;5027835;28;20063;-71
2023/02/20 12:54:25;;;;;;;51.22;24.95;;;6.70;99.90;;;;;;5005756;28;20116;-68
2023/02/20 12:57:00;;;;;;;40.90;23.30;;;6.70;99.90;;;;;;5024635;28;20192;-69
2023/02/20 12:59:49;;;;;;;49.38;24.65;;;6.70;99.90;;;;;;5027654;28;20506;-69
2023/02/20 13:02:28;;;;;;;52.28;24.00;;;6.70;99.90;;;;;;5000906;28;20306;-69
2023/02/20 13:05:13;;;;;;;42.75;21.02;;;6.70;99.90;;;;;;5010940;28;20403;-69
2023/02/20 13:07:55;;;;;;;51.00;20.98;;;6.70;99.90;;;;;;5021686;28;20052;-68
2023/02/20 13:10:29;;;;;;;38.72;20.45;;;6.70;99.90;;;;;;5010764;28;20549;-69
2023/02/20 13:12:56;;;;;;;50.83;24.58;;;6.70;99.90;;;;;;5008793;28;20049;-68
2023/02/20 13:15:56;;;;;;;55.10;25.95;;;6.70;99.90;;;;;;5019452;28;20609;-71
2023/02/20 13:18:35;;;;;;;44.33;22.33;;;6.70;99.90;;;;;;5013035;28;20049;-68
2023/02/20 13:21:09;;;;;;;46.53;24.50;;;6.70;99.90;;;;;;5020481;28;20045;-69
2023/02/20 13:23:37;;;;;;;46.97;23.00;;;6.70;99.90;;;;;;5014607;28;20041;-69
2023/02/20 13:26:26;;;;;;;41.30;23.35;;;6.70;99.90;;;;;;5000803;28;20385;-68